Portada
METAR-TAF:

METAR-TAF

Aeroports :

William H. Morse State Airport

Bennington, Vermont, Estats Units d'Amèrica

latitud: 42-53-24N, longitud: 073-14-47W, altitud: 252 m

Observació

L'informe es va fer fa 9 hores i 56 minuts, a les 14:02 UTC
Vent 11 kt del Sud-Est
Temperatura 9°C
Humitat 81%
Pressió 1007 hPa
Visibilitat: 4.0 km
Núvols disperses a una alçada de 3900 ft
Cel ennuvolat a una alçada de 4700 ft
Cel cobert a una alçada de 5500 ft
pluja

METAR: KDDH 151402Z AUTO 14011KT 2 1/2SM RA SCT039 BKN047 OVC055 09/06 A2973 RMK AO2 P0003 T00890056

Hora: 19:58 (23:58 UTC)


TAF: manca

Observacions i pronòstics meteorològics de més de 4000 aeroports (METAR i TAF).

Les estacions disponibles són els punts grocs i vermells al mapa.

Posi el ratolí al punt desitjat per veure el nom de l'estació.

Feu clic per veure les observacions i els pronòstics meteorològics.

Per canviar el mapa: feu clic els botons verds amb una creu de color negre per apropar; al botó verd amb un guió per allunyar la imatge; o en les fletxes verdes per a mapes adjacents.


METAR-TAF: